Time;durP1;ratioP1;P1;durP2;ratioP2;P2;SDS_P1;SDS_P2;PMS_P1;PMS_P2;Temp;Humidity;BMP_temperature;BMP_pressure;BME280_temperature;BME280_humidity;BME280_pressure;Samples;Min_cycle;Max_cycle;Signal;HPM_P1;HPM_P2
2023/08/12 00:01:37;;;;;;;10.73;5.38;;;;;;;;;;5010734;28;20060;-86
2023/08/12 00:04:08;;;;;;;;;;;;;;;;;;4995889;28;20167;-86
2023/08/12 00:06:40;;;;;;;14.88;4.88;;;;;;;;;;5009912;28;19928;-86
2023/08/12 00:09:18;;;;;;;12.70;5.03;;;;;;;;;;4996251;28;20061;-87
2023/08/12 00:11:49;;;;;;;8.98;4.90;;;;;;;;;;4993505;28;20412;-87
2023/08/12 00:14:21;;;;;;;12.18;5.70;;;;;;;;;;5010935;28;20155;-86
2023/08/12 00:16:53;;;;;;;11.57;5.25;;;;;;;;;;4993223;28;20472;-86
2023/08/12 00:19:26;;;;;;;10.25;5.20;;;;;;;;;;4995285;28;20054;-86
2023/08/12 00:21:57;;;;;;;10.02;4.82;;;;;;;;;;4994747;28;20420;-85
2023/08/12 00:24:44;;;;;;;13.77;5.68;;;;;;;;;;4995113;28;20050;-86
2023/08/12 00:27:17;;;;;;;;;;;;;;;;;;4993709;28;20053;-86
2023/08/12 00:29:51;;;;;;;11.18;5.10;;;;;;;;;;5008573;28;19937;-85
2023/08/12 00:32:22;;;;;;;15.25;5.22;;;;;;;;;;5010126;28;20050;-85
2023/08/12 00:34:52;;;;;;;8.35;5.30;;;;;;;;;;5008391;28;20420;-86
2023/08/12 00:37:27;;;;;;;9.23;4.65;;;;;;;;;;4995126;28;20050;-85
2023/08/12 00:39:59;;;;;;;10.20;4.63;;;;;;;;;;5008219;28;20052;-85
2023/08/12 00:42:30;;;;;;;9.07;5.75;;;;;;;;;;4994896;28;20384;-86
2023/08/12 00:45:01;;;;;;;10.95;5.45;;;;;;;;;;4993187;28;20057;-86
2023/08/12 00:47:36;;;;;;;10.30;5.82;;;;;;;;;;4993319;28;20054;-87
2023/08/12 00:50:17;;;;;;;14.93;5.93;;;;;;;;;;4993268;28;20050;-87
2023/08/12 00:52:48;;;;;;;10.57;6.00;;;;;;;;;;4994374;28;20050;-87
2023/08/12 00:55:20;;;;;;;12.40;6.15;;;;;;;;;;4993130;28;20073;-86
2023/08/12 00:57:55;;;;;;;11.45;5.25;;;;;;;;;;5008754;28;20065;-86
2023/08/12 01:00:29;;;;;;;13.65;6.20;;;;;;;;;;4992843;28;20061;-87
2023/08/12 01:03:02;;;;;;;12.93;6.57;;;;;;;;;;5010054;28;20396;-86
2023/08/12 01:05:35;;;;;;;12.18;5.75;;;;;;;;;;5008567;28;20046;-87
2023/08/12 01:08:14;;;;;;;11.38;5.53;;;;;;;;;;4993888;28;20062;-87
2023/08/12 01:11:03;;;;;;;9.98;5.60;;;;;;;;;;4994846;28;20061;-87
2023/08/12 01:13:38;;;;;;;10.90;5.03;;;;;;;;;;5010093;28;20049;-86
2023/08/12 01:16:11;;;;;;;14.65;5.82;;;;;;;;;;4992460;28;20080;-87
2023/08/12 01:18:42;;;;;;;12.20;5.25;;;;;;;;;;4992460;28;20050;-87
2023/08/12 01:21:17;;;;;;;13.23;5.93;;;;;;;;;;5009616;28;20053;-86
2023/08/12 01:23:50;;;;;;;12.85;6.20;;;;;;;;;;4992282;28;20054;-86
2023/08/12 01:26:24;;;;;;;12.35;5.63;;;;;;;;;;5009635;28;20445;-86
2023/08/12 01:28:59;;;;;;;11.18;5.82;;;;;;;;;;5008532;28;20041;-86
2023/08/12 01:31:42;;;;;;;10.57;5.60;;;;;;;;;;5008448;28;20041;-86
2023/08/12 01:34:35;;;;;;;11.35;5.40;;;;;;;;;;4989783;28;20052;-86
2023/08/12 01:37:11;;;;;;;10.23;5.18;;;;;;;;;;5035492;28;20064;-87
2023/08/12 01:39:47;;;;;;;12.52;5.80;;;;;;;;;;5006519;28;20048;-87
2023/08/12 01:42:19;;;;;;;13.98;5.45;;;;;;;;;;5006405;28;20053;-86
2023/08/12 01:44:50;;;;;;;11.82;5.65;;;;;;;;;;5008926;28;20056;-86
2023/08/12 01:47:21;;;;;;;13.52;5.68;;;;;;;;;;5008882;28;20045;-85
2023/08/12 01:49:56;;;;;;;10.77;5.50;;;;;;;;;;4988666;28;20065;-87
2023/08/12 01:52:28;;;;;;;13.82;4.75;;;;;;;;;;5005982;28;20053;-86
2023/08/12 01:54:59;;;;;;;12.13;5.43;;;;;;;;;;4982946;28;20393;-87
2023/08/12 01:57:30;;;;;;;10.48;4.88;;;;;;;;;;4988998;28;20042;-86
2023/08/12 02:00:06;;;;;;;13.80;5.30;;;;;;;;;;5008475;28;20061;-87
2023/08/12 02:02:46;;;;;;;10.05;5.30;;;;;;;;;;5008477;28;20054;-85
2023/08/12 02:05:19;;;;;;;16.88;5.10;;;;;;;;;;5006894;28;20058;-86
2023/08/12 02:07:51;;;;;;;11.60;5.30;;;;;;;;;;4992068;28;20493;-86
2023/08/12 02:10:27;;;;;;;13.05;5.60;;;;;;;;;;5007329;28;20046;-84
2023/08/12 02:13:02;;;;;;;9.30;5.13;;;;;;;;;;4991832;28;20439;-84
2023/08/12 02:15:33;;;;;;;11.27;5.15;;;;;;;;;;4991468;28;20050;-86
2023/08/12 02:18:13;;;;;;;11.05;5.53;;;;;;;;;;5007990;28;20060;-86
2023/08/12 02:20:48;;;;;;;8.98;4.90;;;;;;;;;;5007346;28;20065;-86
2023/08/12 02:23:23;;;;;;;10.60;5.40;;;;;;;;;;5009186;28;20053;-85
2023/08/12 02:25:56;;;;;;;12.73;4.95;;;;;;;;;;5008906;28;20053;-83
2023/08/12 02:28:27;;;;;;;9.02;5.00;;;;;;;;;;4991431;28;20046;-83
2023/08/12 02:30:58;;;;;;;12.27;5.88;;;;;;;;;;4992400;28;20054;-83
2023/08/12 02:33:32;;;;;;;;;;;;;;;;;;5007491;28;20058;-84
2023/08/12 02:36:02;;;;;;;9.82;5.05;;;;;;;;;;5007833;28;19944;-84
2023/08/12 02:38:33;;;;;;;12.75;6.00;;;;;;;;;;4994550;28;20049;-85
2023/08/12 02:41:05;;;;;;;15.98;6.05;;;;;;;;;;5009237;28;20048;-85
2023/08/12 02:43:36;;;;;;;10.98;5.47;;;;;;;;;;4995000;28;20049;-84
2023/08/12 02:46:06;;;;;;;13.40;6.15;;;;;;;;;;5006916;28;20061;-85
2023/08/12 02:48:38;;;;;;;9.57;5.28;;;;;;;;;;5010423;28;20281;-85
2023/08/12 02:51:09;;;;;;;11.02;5.50;;;;;;;;;;5008590;28;20065;-85
2023/08/12 02:53:42;;;;;;;11.73;5.85;;;;;;;;;;5009606;28;20068;-86
2023/08/12 02:56:14;;;;;;;10.00;5.63;;;;;;;;;;4995211;28;20054;-85
2023/08/12 02:58:47;;;;;;;10.07;6.15;;;;;;;;;;5009435;28;20490;-86
2023/08/12 03:01:22;;;;;;;10.23;5.55;;;;;;;;;;5010085;28;20046;-86
2023/08/12 03:03:54;;;;;;;10.70;5.80;;;;;;;;;;5008641;28;20057;-86
2023/08/12 03:06:25;;;;;;;13.90;6.25;;;;;;;;;;5009832;28;20061;-85
2023/08/12 03:08:59;;;;;;;11.82;6.57;;;;;;;;;;5008775;28;20066;-85
2023/08/12 03:11:31;;;;;;;14.02;6.50;;;;;;;;;;4994737;28;20053;-85
2023/08/12 03:14:07;;;;;;;17.10;6.03;;;;;;;;;;4995151;28;20404;-85
2023/08/12 03:16:39;;;;;;;12.77;6.25;;;;;;;;;;5009884;28;20046;-85
2023/08/12 03:19:09;;;;;;;13.98;6.03;;;;;;;;;;5008389;28;20547;-86
2023/08/12 03:21:46;;;;;;;12.85;5.80;;;;;;;;;;5008605;28;20054;-86
2023/08/12 03:24:23;;;;;;;;;;;;;;;;;;5008909;28;20054;-86
2023/08/12 03:26:54;;;;;;;14.00;6.05;;;;;;;;;;5007884;28;19921;-85
2023/08/12 03:29:25;;;;;;;12.20;5.53;;;;;;;;;;4993976;28;20058;-85
2023/08/12 03:32:01;;;;;;;12.48;5.85;;;;;;;;;;5009668;28;20046;-85
2023/08/12 03:34:33;;;;;;;17.10;6.05;;;;;;;;;;5008170;28;20050;-85
2023/08/12 03:37:06;;;;;;;11.93;6.28;;;;;;;;;;4993961;28;20046;-86
2023/08/12 03:39:38;;;;;;;16.00;6.68;;;;;;;;;;5010085;28;20400;-85
2023/08/12 03:42:11;;;;;;;13.45;6.90;;;;;;;;;;5009775;28;20411;-86
2023/08/12 03:44:41;;;;;;;13.63;6.70;;;;;;;;;;5009833;28;20460;-86
2023/08/12 03:47:12;;;;;;;16.05;6.35;;;;;;;;;;5009745;28;20059;-85
2023/08/12 03:49:43;;;;;;;15.32;6.13;;;;;;;;;;5007869;28;20050;-85
2023/08/12 03:52:16;;;;;;;11.60;5.90;;;;;;;;;;5007580;28;20392;-86
2023/08/12 03:54:50;;;;;;;12.27;6.05;;;;;;;;;;5009617;28;20054;-85
2023/08/12 03:57:22;;;;;;;12.35;6.57;;;;;;;;;;5009404;28;20053;-84
2023/08/12 03:59:52;;;;;;;11.60;5.95;;;;;;;;;;4993448;28;20488;-84
2023/08/12 04:02:25;;;;;;;12.60;6.70;;;;;;;;;;5008986;28;20053;-84
2023/08/12 04:04:56;;;;;;;14.80;6.50;;;;;;;;;;5011387;28;20042;-82
2023/08/12 04:07:26;;;;;;;13.90;6.35;;;;;;;;;;5013077;28;20054;-82
2023/08/12 04:09:57;;;;;;;15.70;6.68;;;;;;;;;;5013303;28;20054;-83
2023/08/12 04:12:29;;;;;;;14.25;6.65;;;;;;;;;;4995460;28;20054;-84
2023/08/12 04:15:04;;;;;;;13.52;6.50;;;;;;;;;;5010838;28;20080;-82
2023/08/12 04:17:36;;;;;;;12.25;6.15;;;;;;;;;;5012794;28;20046;-82
2023/08/12 04:20:10;;;;;;;12.65;5.90;;;;;;;;;;5010750;28;20463;-83
2023/08/12 04:22:43;;;;;;;11.30;5.75;;;;;;;;;;5013168;28;20057;-84
2023/08/12 04:25:19;;;;;;;17.75;7.45;;;;;;;;;;4996992;28;20054;-83
2023/08/12 04:27:49;;;;;;;13.00;5.82;;;;;;;;;;4997020;28;20524;-82
2023/08/12 04:30:23;;;;;;;11.75;5.57;;;;;;;;;;5012294;28;20057;-83
2023/08/12 04:32:55;;;;;;;11.30;5.07;;;;;;;;;;5011981;28;20061;-83
2023/08/12 04:35:32;;;;;;;10.10;4.72;;;;;;;;;;4996324;28;20061;-84
2023/08/12 04:38:04;;;;;;;10.73;5.95;;;;;;;;;;5011800;28;20057;-84
2023/08/12 04:40:34;;;;;;;18.45;8.68;;;;;;;;;;5010710;28;20046;-84
2023/08/12 04:43:06;;;;;;;12.10;6.93;;;;;;;;;;5011096;28;20034;-83
2023/08/12 04:45:38;;;;;;;14.45;6.00;;;;;;;;;;5012578;28;20045;-83
2023/08/12 04:48:08;;;;;;;11.80;5.38;;;;;;;;;;5010536;28;20057;-82
2023/08/12 04:50:38;;;;;;;13.27;5.82;;;;;;;;;;5011904;28;20053;-82
2023/08/12 04:53:12;;;;;;;12.50;6.07;;;;;;;;;;5011731;28;20054;-82
2023/08/12 04:55:44;;;;;;;10.57;4.80;;;;;;;;;;5011805;28;20487;-82
2023/08/12 04:58:20;;;;;;;13.63;5.90;;;;;;;;;;5011832;28;20057;-84
2023/08/12 05:00:52;;;;;;;12.10;6.03;;;;;;;;;;5010552;28;20050;-85
2023/08/12 05:03:26;;;;;;;14.75;5.90;;;;;;;;;;5012348;28;20400;-85
2023/08/12 05:05:58;;;;;;;18.50;6.13;;;;;;;;;;5010499;28;20057;-82
2023/08/12 05:08:29;;;;;;;15.68;5.53;;;;;;;;;;5011637;28;20057;-79
2023/08/12 05:10:59;;;;;;;11.73;6.30;;;;;;;;;;5012086;28;20060;-79
2023/08/12 05:13:33;;;;;;;14.77;6.53;;;;;;;;;;5011356;28;20068;-83
2023/08/12 05:16:05;;;;;;;11.98;5.15;;;;;;;;;;5013046;28;20057;-84
2023/08/12 05:18:36;;;;;;;10.10;4.55;;;;;;;;;;4996031;28;20381;-82
2023/08/12 05:21:07;;;;;;;12.05;6.03;;;;;;;;;;5011419;28;20065;-83
2023/08/12 05:23:40;;;;;;;14.85;6.38;;;;;;;;;;5011785;28;20041;-84
2023/08/12 05:26:15;;;;;;;12.18;6.40;;;;;;;;;;5011555;28;20053;-83
2023/08/12 05:28:45;;;;;;;18.88;7.50;;;;;;;;;;5011380;28;20488;-82
2023/08/12 05:31:17;;;;;;;15.88;6.55;;;;;;;;;;4994639;28;20419;-85
2023/08/12 05:33:53;;;;;;;12.73;5.82;;;;;;;;;;5009791;28;20050;-84
2023/08/12 05:36:28;;;;;;;13.93;6.55;;;;;;;;;;5010790;28;20049;-84
2023/08/12 05:38:59;;;;;;;13.52;5.78;;;;;;;;;;5010359;28;20480;-84
2023/08/12 05:41:29;;;;;;;12.05;5.93;;;;;;;;;;5010285;28;20042;-86
2023/08/12 05:44:06;;;;;;;11.82;6.20;;;;;;;;;;5010218;28;20063;-84
2023/08/12 05:46:36;;;;;;;12.00;5.93;;;;;;;;;;5009981;28;20400;-84
2023/08/12 05:49:07;;;;;;;12.65;6.43;;;;;;;;;;5009959;28;20057;-84
2023/08/12 05:51:38;;;;;;;12.10;6.32;;;;;;;;;;5011454;28;20046;-83
2023/08/12 05:54:10;;;;;;;12.18;6.20;;;;;;;;;;5009551;28;20050;-83
2023/08/12 05:56:45;;;;;;;15.57;6.05;;;;;;;;;;5008987;28;20046;-85
2023/08/12 05:59:19;;;;;;;11.55;6.35;;;;;;;;;;5010855;28;20060;-85
2023/08/12 06:01:49;;;;;;;10.93;6.13;;;;;;;;;;5009841;28;20050;-85
2023/08/12 06:04:20;;;;;;;13.98;6.20;;;;;;;;;;5009822;28;20041;-83
2023/08/12 06:06:50;;;;;;;13.82;5.88;;;;;;;;;;5010771;28;20061;-84
2023/08/12 06:09:23;;;;;;;15.75;5.78;;;;;;;;;;5009998;28;20045;-82
2023/08/12 06:11:55;;;;;;;11.18;6.32;;;;;;;;;;5010008;28;20046;-84
2023/08/12 06:14:25;;;;;;;12.07;6.30;;;;;;;;;;4995041;28;20050;-83
2023/08/12 06:16:56;;;;;;;13.70;5.95;;;;;;;;;;5010719;28;20046;-83
2023/08/12 06:19:31;;;;;;;12.23;6.20;;;;;;;;;;5010612;28;20042;-83
2023/08/12 06:22:08;;;;;;;13.55;7.35;;;;;;;;;;5011150;28;20058;-83
2023/08/12 06:24:39;;;;;;;10.82;5.97;;;;;;;;;;4995293;28;20053;-83
2023/08/12 06:27:09;;;;;;;10.02;5.88;;;;;;;;;;5010110;28;20068;-84
2023/08/12 06:29:39;;;;;;;12.82;6.25;;;;;;;;;;5011082;28;20042;-84
2023/08/12 06:32:12;;;;;;;12.90;7.20;;;;;;;;;;4992875;28;20399;-83
2023/08/12 06:34:45;;;;;;;12.00;6.65;;;;;;;;;;5009351;28;20053;-83
2023/08/12 06:37:15;;;;;;;16.90;6.90;;;;;;;;;;5010967;28;20061;-83
2023/08/12 06:39:47;;;;;;;15.35;6.43;;;;;;;;;;5008631;28;20053;-83
2023/08/12 06:42:18;;;;;;;10.55;4.65;;;;;;;;;;5010518;28;20505;-81
2023/08/12 06:44:56;;;;;;;7.82;4.05;;;;;;;;;;5009836;28;20069;-82
2023/08/12 06:47:29;;;;;;;15.23;6.95;;;;;;;;;;5010761;28;20507;-85
2023/08/12 06:49:59;;;;;;;12.18;6.82;;;;;;;;;;5008683;28;20058;-85
2023/08/12 06:52:32;;;;;;;8.77;4.55;;;;;;;;;;4993101;28;20404;-84
2023/08/12 06:55:02;;;;;;;8.80;4.80;;;;;;;;;;4994184;28;20053;-84
2023/08/12 06:57:32;;;;;;;10.40;4.85;;;;;;;;;;5009523;28;20042;-85
2023/08/12 07:00:05;;;;;;;11.13;5.03;;;;;;;;;;5010158;28;20128;-84
2023/08/12 07:02:37;;;;;;;11.35;5.75;;;;;;;;;;5010157;28;20046;-82
2023/08/12 07:05:08;;;;;;;10.15;5.00;;;;;;;;;;5011447;28;20058;-84
2023/08/12 07:07:40;;;;;;;7.85;4.50;;;;;;;;;;5008529;28;20058;-84
2023/08/12 07:10:11;;;;;;;9.75;5.30;;;;;;;;;;5010369;28;20400;-85
2023/08/12 07:12:42;;;;;;;9.15;5.68;;;;;;;;;;4994841;28;20488;-85
2023/08/12 07:15:14;;;;;;;10.32;5.07;;;;;;;;;;4994734;28;20492;-85
2023/08/12 07:17:46;;;;;;;10.70;4.82;;;;;;;;;;5008559;28;20061;-85
2023/08/12 07:20:18;;;;;;;10.00;4.50;;;;;;;;;;5008918;28;20480;-85
2023/08/12 07:22:49;;;;;;;9.68;5.63;;;;;;;;;;5008289;28;20057;-84
2023/08/12 07:25:20;;;;;;;10.25;4.97;;;;;;;;;;5009552;28;20073;-83
2023/08/12 07:27:51;;;;;;;15.07;5.85;;;;;;;;;;5009293;28;20341;-83
2023/08/12 07:30:21;;;;;;;9.00;4.45;;;;;;;;;;5109174;28;20045;-83
2023/08/12 07:32:53;;;;;;;13.65;3.75;;;;;;;;;;4994137;28;20045;-84
2023/08/12 07:35:29;;;;;;;9.48;5.30;;;;;;;;;;5008809;28;20042;-83
2023/08/12 07:38:03;;;;;;;12.25;5.72;;;;;;;;;;5008384;28;20480;-83
2023/08/12 07:40:33;;;;;;;11.60;5.35;;;;;;;;;;5011448;28;20046;-83
2023/08/12 07:43:12;;;;;;;10.90;5.25;;;;;;;;;;4998080;28;20053;-83
2023/08/12 07:45:45;;;;;;;9.27;5.43;;;;;;;;;;5013221;28;20056;-84
2023/08/12 07:48:24;;;;;;;11.65;6.75;;;;;;;;;;5013277;28;20049;-82
2023/08/12 07:50:58;;;;;;;10.70;5.57;;;;;;;;;;4994894;28;20062;-82
2023/08/12 07:53:30;;;;;;;11.27;6.93;;;;;;;;;;5013205;28;20053;-84
2023/08/12 07:56:04;;;;;;;13.93;6.63;;;;;;;;;;5013642;28;20156;-82
2023/08/12 07:58:34;;;;;;;14.88;7.80;;;;;;;;;;5013535;28;20057;-81
2023/08/12 08:01:04;;;;;;;13.30;8.40;;;;;;;;;;5011658;28;20408;-83
2023/08/12 08:03:35;;;;;;;13.60;6.75;;;;;;;;;;5011234;28;20135;-83
2023/08/12 08:06:07;;;;;;;13.90;7.55;;;;;;;;;;5011557;28;20104;-85
2023/08/12 08:08:39;;;;;;;12.55;6.53;;;;;;;;;;5011677;28;20050;-83
2023/08/12 08:11:12;;;;;;;12.88;7.72;;;;;;;;;;5011923;28;20403;-82
2023/08/12 08:13:42;;;;;;;17.38;9.43;;;;;;;;;;5011978;28;20050;-83
2023/08/12 08:16:12;;;;;;;20.80;11.77;;;;;;;;;;5011190;28;20396;-81
2023/08/12 08:18:48;;;;;;;16.40;9.32;;;;;;;;;;5011653;28;20049;-81
2023/08/12 08:21:19;;;;;;;16.85;9.60;;;;;;;;;;5011349;28;20373;-82
2023/08/12 08:23:52;;;;;;;16.35;9.45;;;;;;;;;;5011184;28;20046;-81
2023/08/12 08:26:22;;;;;;;17.50;9.48;;;;;;;;;;5012772;28;20056;-81
2023/08/12 08:28:53;;;;;;;19.52;8.65;;;;;;;;;;5011013;28;20042;-79
2023/08/12 08:31:26;;;;;;;10.93;4.53;;;;;;;;;;5013161;28;20061;-79
2023/08/12 08:34:00;;;;;;;10.18;4.72;;;;;;;;;;4997406;28;20054;-78
2023/08/12 08:36:29;;;;;;;8.55;3.65;;;;;;;;;;5011407;28;20053;-78
2023/08/12 08:39:03;;;;;;;7.03;3.88;;;;;;;;;;5012322;28;20064;-80
2023/08/12 08:41:39;;;;;;;8.48;3.75;;;;;;;;;;5012481;28;20049;-80
2023/08/12 08:44:15;;;;;;;7.85;3.42;;;;;;;;;;5012353;28;20460;-82
2023/08/12 08:46:47;;;;;;;7.47;3.83;;;;;;;;;;5011723;28;20507;-83
2023/08/12 08:49:21;;;;;;;8.35;4.53;;;;;;;;;;5010171;28;20396;-81
2023/08/12 08:51:53;;;;;;;6.28;3.40;;;;;;;;;;5012079;28;20050;-80
2023/08/12 08:54:23;;;;;;;7.55;4.32;;;;;;;;;;5012142;28;20050;-80
2023/08/12 08:56:54;;;;;;;10.77;4.10;;;;;;;;;;5011531;28;20050;-80
2023/08/12 08:59:32;;;;;;;4.93;2.75;;;;;;;;;;5013204;28;20050;-80
2023/08/12 09:02:08;;;;;;;7.80;3.22;;;;;;;;;;5012450;28;20056;-83
2023/08/12 09:04:40;;;;;;;5.47;2.53;;;;;;;;;;4996923;28;20050;-82
2023/08/12 09:07:13;;;;;;;5.93;2.70;;;;;;;;;;5010800;28;20496;-83
2023/08/12 09:09:50;;;;;;;5.70;2.28;;;;;;;;;;5009772;28;20061;-85
2023/08/12 09:12:21;;;;;;;4.60;2.20;;;;;;;;;;5012170;28;20050;-83
2023/08/12 09:14:53;;;;;;;10.50;3.25;;;;;;;;;;5077430;28;20116;-83
2023/08/12 09:17:23;;;;;;;4.63;2.15;;;;;;;;;;5010291;28;20061;-83
2023/08/12 09:19:57;;;;;;;3.00;1.40;;;;;;;;;;4994201;28;20061;-84
2023/08/12 09:22:28;;;;;;;2.13;1.10;;;;;;;;;;5012426;28;20134;-84
2023/08/12 09:24:58;;;;;;;3.08;1.48;;;;;;;;;;5077999;28;20053;-86
2023/08/12 09:27:31;;;;;;;;;;;;;;;;;;5010963;28;20495;-84
2023/08/12 09:30:06;;;;;;;2.22;1.00;;;;;;;;;;5009987;28;20288;-85
2023/08/12 09:32:38;;;;;;;2.35;1.00;;;;;;;;;;5033305;28;20049;-84
2023/08/12 09:35:16;;;;;;;2.95;0.90;;;;;;;;;;5019927;28;20504;-83
2023/08/12 09:37:47;;;;;;;2.13;0.73;;;;;;;;;;5042275;28;20054;-83
2023/08/12 09:40:19;;;;;;;2.00;0.90;;;;;;;;;;5064463;28;20503;-83
2023/08/12 09:42:51;;;;;;;2.72;1.10;;;;;;;;;;4999247;28;20520;-85
2023/08/12 09:45:26;;;;;;;4.90;1.08;;;;;;;;;;5095811;28;20044;-83
2023/08/12 09:47:57;;;;;;;2.08;0.75;;;;;;;;;;5011116;28;20050;-83
2023/08/12 09:50:33;;;;;;;4.13;0.80;;;;;;;;;;5011271;28;20057;-83
2023/08/12 09:53:04;;;;;;;2.35;1.00;;;;;;;;;;5011218;28;20042;-82
2023/08/12 09:55:37;;;;;;;3.17;1.50;;;;;;;;;;5010836;28;20400;-84
2023/08/12 09:58:11;;;;;;;1.70;1.00;;;;;;;;;;5009763;28;20056;-83
2023/08/12 10:00:45;;;;;;;1.83;0.80;;;;;;;;;;5010963;28;20519;-83
2023/08/12 10:03:21;;;;;;;2.28;0.98;;;;;;;;;;5008517;28;20411;-85
2023/08/12 10:05:52;;;;;;;2.70;1.23;;;;;;;;;;4993303;28;20418;-83
2023/08/12 10:08:24;;;;;;;3.83;1.27;;;;;;;;;;5009399;28;20050;-82
2023/08/12 10:10:59;;;;;;;3.33;0.98;;;;;;;;;;5009512;28;20049;-84
2023/08/12 10:13:45;;;;;;;2.20;1.10;;;;;;;;;;5008955;28;20050;-83
2023/08/12 10:16:18;;;;;;;1.75;0.80;;;;;;;;;;5011112;28;20061;-84
2023/08/12 10:18:53;;;;;;;3.55;1.13;;;;;;;;;;4996130;28;20050;-83
2023/08/12 10:21:30;;;;;;;4.68;1.02;;;;;;;;;;5009331;28;20050;-82
2023/08/12 10:24:03;;;;;;;3.00;0.90;;;;;;;;;;5008688;28;20080;-82
2023/08/12 10:26:41;;;;;;;4.35;1.65;;;;;;;;;;5009472;28;20381;-82
2023/08/12 10:29:15;;;;;;;3.00;1.40;;;;;;;;;;5009102;28;20049;-86
2023/08/12 10:31:49;;;;;;;4.30;1.30;;;;;;;;;;5009121;28;20056;-84
2023/08/12 10:34:25;;;;;;;4.05;1.52;;;;;;;;;;5009042;28;20054;-85
2023/08/12 10:37:01;;;;;;;3.97;1.52;;;;;;;;;;5010491;28;20057;-84
2023/08/12 10:39:34;;;;;;;4.22;1.48;;;;;;;;;;5009428;28;20054;-83
2023/08/12 10:42:06;;;;;;;2.95;1.23;;;;;;;;;;5008911;28;20066;-83
2023/08/12 10:44:51;;;;;;;4.28;0.95;;;;;;;;;;5009799;28;20042;-84
2023/08/12 10:47:24;;;;;;;1.65;0.70;;;;;;;;;;5009966;28;20698;-83
2023/08/12 10:49:58;;;;;;;2.55;0.60;;;;;;;;;;5007369;28;20058;-84
2023/08/12 10:52:34;;;;;;;1.25;0.68;;;;;;;;;;5007047;28;20053;-82
2023/08/12 10:55:25;;;;;;;1.88;0.80;;;;;;;;;;4995043;28;20054;-82
2023/08/12 10:57:59;;;;;;;1.65;0.82;;;;;;;;;;5008634;28;20046;-82
2023/08/12 11:00:30;;;;;;;1.08;0.65;;;;;;;;;;4994033;28;20054;-81
2023/08/12 11:03:00;;;;;;;0.80;0.30;;;;;;;;;;5010064;28;20057;-80
2023/08/12 11:05:38;;;;;;;2.22;0.70;;;;;;;;;;4993943;28;20384;-81
2023/08/12 11:08:09;;;;;;;1.02;0.60;;;;;;;;;;5006237;28;20053;-82
2023/08/12 11:10:40;;;;;;;4.88;0.68;;;;;;;;;;5009256;28;20038;-82
2023/08/12 11:13:13;;;;;;;1.20;0.60;;;;;;;;;;5010360;28;20065;-82
2023/08/12 11:15:47;;;;;;;2.05;0.95;;;;;;;;;;5011907;28;20046;-82
2023/08/12 11:18:20;;;;;;;2.55;1.10;;;;;;;;;;5013233;28;20053;-82
2023/08/12 11:20:50;;;;;;;;;;;;;;;;;;5013820;28;20489;-82
2023/08/12 11:23:24;;;;;;;1.33;0.65;;;;;;;;;;5013118;28;19921;-82
2023/08/12 11:25:58;;;;;;;0.90;0.50;;;;;;;;;;5011652;28;20049;-82
2023/08/12 11:28:31;;;;;;;2.83;0.70;;;;;;;;;;5013234;28;20480;-82
2023/08/12 11:31:04;;;;;;;2.95;0.60;;;;;;;;;;5013232;28;20090;-83
2023/08/12 11:33:36;;;;;;;;;;;;;;;;;;4997857;28;20496;-83
2023/08/12 11:36:07;;;;;;;1.33;0.50;;;;;;;;;;5013783;28;20264;-83
2023/08/12 11:38:40;;;;;;;1.98;0.60;;;;;;;;;;5014132;28;20113;-82
2023/08/12 11:41:11;;;;;;;1.38;0.80;;;;;;;;;;5012079;28;20379;-82
2023/08/12 11:43:43;;;;;;;2.83;1.10;;;;;;;;;;5012558;28;20042;-81
2023/08/12 11:46:16;;;;;;;0.70;0.50;;;;;;;;;;4996977;28;20046;-80
2023/08/12 11:48:49;;;;;;;1.20;0.40;;;;;;;;;;5011216;28;20038;-79
2023/08/12 11:51:20;;;;;;;1.10;0.60;;;;;;;;;;5097515;27;20098;-80
2023/08/12 11:53:56;;;;;;;1.20;0.65;;;;;;;;;;5105222;27;20046;-80
2023/08/12 11:56:28;;;;;;;1.40;0.50;;;;;;;;;;5002352;28;20046;-81
2023/08/12 11:58:59;;;;;;;1.92;0.80;;;;;;;;;;5011880;28;20065;-80
2023/08/12 12:01:32;;;;;;;1.75;0.50;;;;;;;;;;5012682;28;20054;-80
2023/08/12 12:04:07;;;;;;;1.25;0.68;;;;;;;;;;5012056;28;20053;-80
2023/08/12 12:06:38;;;;;;;1.08;0.70;;;;;;;;;;5008153;28;20050;-80
2023/08/12 12:09:11;;;;;;;2.65;0.70;;;;;;;;;;5012353;28;20416;-80
2023/08/12 12:11:42;;;;;;;1.35;0.65;;;;;;;;;;5012565;28;20046;-80
2023/08/12 12:14:14;;;;;;;2.28;0.88;;;;;;;;;;5011061;28;20034;-80
2023/08/12 12:16:49;;;;;;;4.68;0.90;;;;;;;;;;5004150;28;20049;-80
2023/08/12 12:19:22;;;;;;;2.88;0.85;;;;;;;;;;5009911;28;20393;-80
2023/08/12 12:21:53;;;;;;;4.82;1.00;;;;;;;;;;5009115;28;20522;-81
2023/08/12 12:24:30;;;;;;;1.77;0.88;;;;;;;;;;5008718;28;20504;-83
2023/08/12 12:27:01;;;;;;;2.38;1.13;;;;;;;;;;5009986;28;20050;-82
2023/08/12 12:29:33;;;;;;;3.50;1.20;;;;;;;;;;5010175;28;20049;-82
2023/08/12 12:32:03;;;;;;;2.83;1.05;;;;;;;;;;5010256;28;20050;-82
2023/08/12 12:34:38;;;;;;;3.67;1.10;;;;;;;;;;5010442;28;20045;-82
2023/08/12 12:37:10;;;;;;;4.70;1.50;;;;;;;;;;5010202;28;20065;-82
2023/08/12 12:39:43;;;;;;;3.40;1.52;;;;;;;;;;5010340;28;20038;-82
2023/08/12 12:42:14;;;;;;;2.67;1.48;;;;;;;;;;5010191;28;20038;-82
2023/08/12 12:44:46;;;;;;;4.18;1.60;;;;;;;;;;5008454;28;20053;-83
2023/08/12 12:47:18;;;;;;;3.10;1.60;;;;;;;;;;5010084;28;20054;-83
2023/08/12 12:49:48;;;;;;;8.38;2.45;;;;;;;;;;5009771;28;20058;-82
2023/08/12 12:52:19;;;;;;;4.70;2.25;;;;;;;;;;5010158;28;20042;-82
2023/08/12 12:54:53;;;;;;;5.97;2.97;;;;;;;;;;5008819;28;20045;-82
2023/08/12 12:57:25;;;;;;;5.38;3.08;;;;;;;;;;5009875;28;20046;-81
2023/08/12 12:59:59;;;;;;;6.90;3.95;;;;;;;;;;5009817;28;20685;-82
2023/08/12 13:02:29;;;;;;;6.15;2.90;;;;;;;;;;5008948;28;20057;-83
2023/08/12 13:05:01;;;;;;;5.13;2.80;;;;;;;;;;5008760;28;20054;-82
2023/08/12 13:07:32;;;;;;;5.10;2.67;;;;;;;;;;5007931;28;20071;-81
2023/08/12 13:10:05;;;;;;;7.90;3.88;;;;;;;;;;5009564;28;20045;-81
2023/08/12 13:12:36;;;;;;;5.30;2.63;;;;;;;;;;5008297;28;20511;-81
2023/08/12 13:15:09;;;;;;;6.45;3.67;;;;;;;;;;5009608;28;20054;-80
2023/08/12 13:17:40;;;;;;;5.90;3.13;;;;;;;;;;5009748;28;20046;-81
2023/08/12 13:20:11;;;;;;;9.55;3.40;;;;;;;;;;5008399;28;20054;-81
2023/08/12 13:22:42;;;;;;;6.47;3.15;;;;;;;;;;5007664;28;20060;-83
2023/08/12 13:25:14;;;;;;;5.07;3.17;;;;;;;;;;5008677;28;20057;-82
2023/08/12 13:27:46;;;;;;;5.93;3.20;;;;;;;;;;5008895;28;20408;-81
2023/08/12 13:30:18;;;;;;;6.13;3.08;;;;;;;;;;5009131;28;20042;-82
2023/08/12 13:32:48;;;;;;;10.00;6.30;;;;;;;;;;5009485;28;20380;-82
2023/08/12 13:35:19;;;;;;;8.82;3.13;;;;;;;;;;5009715;28;20042;-81
2023/08/12 13:37:56;;;;;;;8.52;5.05;;;;;;;;;;5009009;28;20151;-81
2023/08/12 13:40:26;;;;;;;9.73;4.25;;;;;;;;;;5008873;28;20060;-80
2023/08/12 13:42:57;;;;;;;11.27;4.22;;;;;;;;;;5008543;28;20057;-81
2023/08/12 13:45:27;;;;;;;9.95;4.30;;;;;;;;;;5010498;28;20498;-80
2023/08/12 13:48:01;;;;;;;9.70;3.97;;;;;;;;;;5010294;28;20503;-81
2023/08/12 13:50:34;;;;;;;8.00;4.28;;;;;;;;;;5010953;28;20050;-81
2023/08/12 13:53:05;;;;;;;9.23;4.80;;;;;;;;;;5010996;28;20396;-81
2023/08/12 13:55:35;;;;;;;9.00;4.80;;;;;;;;;;5009230;28;20050;-80
2023/08/12 13:58:09;;;;;;;9.95;4.40;;;;;;;;;;5010758;28;20057;-80
2023/08/12 14:00:40;;;;;;;13.68;5.40;;;;;;;;;;5012348;28;20480;-80
2023/08/12 14:03:14;;;;;;;13.52;5.68;;;;;;;;;;5009525;28;20045;-79
2023/08/12 14:05:45;;;;;;;10.63;4.95;;;;;;;;;;5011803;28;20060;-79
2023/08/12 14:08:18;;;;;;;23.40;13.95;;;;;;;;;;5011854;28;20046;-79
2023/08/12 14:10:50;;;;;;;11.25;5.10;;;;;;;;;;5010769;28;20038;-80
2023/08/12 14:13:23;;;;;;;14.18;5.60;;;;;;;;;;5009017;28;20073;-81
2023/08/12 14:15:54;;;;;;;11.48;5.22;;;;;;;;;;5008651;28;20488;-80
2023/08/12 14:18:24;;;;;;;10.57;4.55;;;;;;;;;;5009056;28;20054;-80
2023/08/12 14:20:56;;;;;;;12.18;5.15;;;;;;;;;;5010634;28;20053;-81
2023/08/12 14:23:28;;;;;;;9.93;4.53;;;;;;;;;;4995248;28;20073;-81
2023/08/12 14:25:58;;;;;;;11.82;5.00;;;;;;;;;;5010409;28;20046;-80
2023/08/12 14:28:31;;;;;;;8.98;4.53;;;;;;;;;;5010153;28;20068;-80
2023/08/12 14:31:04;;;;;;;10.68;4.72;;;;;;;;;;5009455;28;20042;-80
2023/08/12 14:33:37;;;;;;;11.55;4.93;;;;;;;;;;5009355;28;20388;-80
2023/08/12 14:36:08;;;;;;;11.73;5.28;;;;;;;;;;5009249;28;20046;-80
2023/08/12 14:38:40;;;;;;;9.98;4.78;;;;;;;;;;5005872;28;20038;-80
2023/08/12 14:41:13;;;;;;;9.73;4.90;;;;;;;;;;4994368;28;20050;-80
2023/08/12 14:43:46;;;;;;;11.43;4.22;;;;;;;;;;5007772;28;20061;-80
2023/08/12 14:46:16;;;;;;;9.25;4.50;;;;;;;;;;5007582;28;20046;-80
2023/08/12 14:48:47;;;;;;;14.18;7.30;;;;;;;;;;4989316;28;20397;-81
2023/08/12 14:51:21;;;;;;;12.52;5.60;;;;;;;;;;5007842;28;20060;-82
2023/08/12 14:53:51;;;;;;;10.68;4.55;;;;;;;;;;5007123;28;20472;-80
2023/08/12 14:56:24;;;;;;;8.68;4.00;;;;;;;;;;5007866;28;20049;-80
2023/08/12 14:58:54;;;;;;;11.40;4.40;;;;;;;;;;5008988;28;20150;-80
2023/08/12 15:01:27;;;;;;;8.43;4.18;;;;;;;;;;5009054;28;20045;-80
2023/08/12 15:04:00;;;;;;;7.72;3.60;;;;;;;;;;4984732;28;20043;-80
2023/08/12 15:06:32;;;;;;;9.25;3.72;;;;;;;;;;5009992;28;20046;-80
2023/08/12 15:09:02;;;;;;;10.63;4.18;;;;;;;;;;5009962;28;20518;-80
2023/08/12 15:11:35;;;;;;;7.95;3.10;;;;;;;;;;5008887;28;20049;-79